sensor_id;sensor_type;location;lat;lon;timestamp;P1;P2;P0
45312;PMS7003;68267;51.540;5.854;2023-07-31T00:12:56;11.77;11.24;8.4
45312;PMS7003;68267;51.540;5.854;2023-07-31T00:26:15;8.17;10.69;7.2
45312;PMS7003;68267;51.540;5.854;2023-07-31T00:39:35;6.37;9.06;6.88
45312;PMS7003;68267;51.540;5.854;2023-07-31T00:52:54;10.09;7.86;5.9
45312;PMS7003;68267;51.540;5.854;2023-07-31T01:06:14;7.21;7.75;5.79
45312;PMS7003;68267;51.540;5.854;2023-07-31T01:19:34;4.57;7.42;5.35
45312;PMS7003;68267;51.540;5.854;2023-07-31T01:32:53;3.73;6.66;4.7
45312;PMS7003;68267;51.540;5.854;2023-07-31T01:46:13;7.69;7.2;5.02
45312;PMS7003;68267;51.540;5.854;2023-07-31T01:59:32;3.85;6.77;4.8
45312;PMS7003;68267;51.540;5.854;2023-07-31T02:12:52;3.48;6.44;4.15
45312;PMS7003;68267;51.540;5.854;2023-07-31T02:26:12;3.12;6.11;4.59
45312;PMS7003;68267;51.540;5.854;2023-07-31T02:39:31;3.97;6.88;4.91
45312;PMS7003;68267;51.540;5.854;2023-07-31T02:52:51;8.05;6.99;5.02
45312;PMS7003;68267;51.540;5.854;2023-07-31T03:06:11;3.85;6.77;4.91
45312;PMS7003;68267;51.540;5.854;2023-07-31T03:19:30;4.21;7.09;5.02
45312;PMS7003;68267;51.540;5.854;2023-07-31T03:32:50;3.24;6.22;4.8
45312;PMS7003;68267;51.540;5.854;2023-07-31T03:46:10;3.24;6.22;4.7
45312;PMS7003;68267;51.540;5.854;2023-07-31T03:59:29;5.41;6.88;5.13
45312;PMS7003;68267;51.540;5.854;2023-07-31T04:12:49;5.17;6.33;5.02
45312;PMS7003;68267;51.540;5.854;2023-07-31T04:26:08;3.36;6.33;4.91
45312;PMS7003;68267;51.540;5.854;2023-07-31T04:39:28;5.53;7.09;5.13
45312;PMS7003;68267;51.540;5.854;2023-07-31T04:52:48;3.6;6.55;5.13
45312;PMS7003;68267;51.540;5.854;2023-07-31T05:06:07;4.45;7.31;5.35
45312;PMS7003;68267;51.540;5.854;2023-07-31T05:19:27;4.21;7.09;5.68
45312;PMS7003;68267;51.540;5.854;2023-07-31T05:32:47;10.45;7.64;5.57
45312;PMS7003;68267;51.540;5.854;2023-07-31T05:46:06;4.21;7.09;6.0
45312;PMS7003;68267;51.540;5.854;2023-07-31T05:59:26;3.85;6.77;5.57
45312;PMS7003;68267;51.540;5.854;2023-07-31T06:12:45;6.37;7.2;6.22
45312;PMS7003;68267;51.540;5.854;2023-07-31T06:26:05;4.33;7.2;6.44
45312;PMS7003;68267;51.540;5.854;2023-07-31T06:39:25;4.69;7.53;6.55
45312;PMS7003;68267;51.540;5.854;2023-07-31T06:52:44;4.93;7.75;6.55
45312;PMS7003;68267;51.540;5.854;2023-07-31T07:06:04;3.85;6.77;6.22
45312;PMS7003;68267;51.540;5.854;2023-07-31T07:19:23;4.57;7.42;5.9
45312;PMS7003;68267;51.540;5.854;2023-07-31T07:32:43;3.97;6.88;6.33
45312;PMS7003;68267;51.540;5.854;2023-07-31T07:46:03;3.48;6.44;5.46
45312;PMS7003;68267;51.540;5.854;2023-07-31T07:59:22;2.4;5.46;5.24
45312;PMS7003;68267;51.540;5.854;2023-07-31T08:12:42;3.36;6.33;5.57
45312;PMS7003;68267;51.540;5.854;2023-07-31T08:26:01;3.97;6.88;6.0
45312;PMS7003;68267;51.540;5.854;2023-07-31T08:39:21;4.81;7.64;6.99
45312;PMS7003;68267;51.540;5.854;2023-07-31T08:52:41;6.01;7.86;7.09
45312;PMS7003;68267;51.540;5.854;2023-07-31T09:06:00;4.81;7.64;7.09
45312;PMS7003;68267;51.540;5.854;2023-07-31T09:19:20;5.41;8.18;7.31
45312;PMS7003;68267;51.540;5.854;2023-07-31T09:32:39;6.97;8.95;7.97
45312;PMS7003;68267;51.540;5.854;2023-07-31T09:45:59;6.25;8.95;7.97
45312;PMS7003;68267;51.540;5.854;2023-07-31T09:59:19;4.69;7.53;6.99
45312;PMS7003;68267;51.540;5.854;2023-07-31T10:12:38;5.17;7.97;6.77
45312;PMS7003;68267;51.540;5.854;2023-07-31T10:25:58;4.57;7.42;6.77
45312;PMS7003;68267;51.540;5.854;2023-07-31T10:39:18;8.05;8.08;6.66
45312;PMS7003;68267;51.540;5.854;2023-07-31T10:52:37;3.36;6.33;5.79
45312;PMS7003;68267;51.540;5.854;2023-07-31T11:05:57;3.24;6.22;5.57
45312;PMS7003;68267;51.540;5.854;2023-07-31T11:19:17;6.25;6.55;5.46
45312;PMS7003;68267;51.540;5.854;2023-07-31T11:32:36;2.88;5.9;5.35
45312;PMS7003;68267;51.540;5.854;2023-07-31T11:45:56;2.64;5.68;5.13
45312;PMS7003;68267;51.540;5.854;2023-07-31T11:59:15;2.16;5.24;4.7
45312;PMS7003;68267;51.540;5.854;2023-07-31T12:12:35;1.56;4.7;4.15
45312;PMS7003;68267;51.540;5.854;2023-07-31T12:25:55;2.4;5.46;5.02
45312;PMS7003;68267;51.540;5.854;2023-07-31T12:39:14;3.85;6.77;6.66
45312;PMS7003;68267;51.540;5.854;2023-07-31T12:52:34;3.6;6.55;6.0
45312;PMS7003;68267;51.540;5.854;2023-07-31T13:05:54;3.6;6.55;5.57
45312;PMS7003;68267;51.540;5.854;2023-07-31T13:19:13;3.97;6.88;6.11
45312;PMS7003;68267;51.540;5.854;2023-07-31T13:32:33;6.37;9.06;8.18
45312;PMS7003;68267;51.540;5.854;2023-07-31T13:45:52;3.73;6.66;5.24
45312;PMS7003;68267;51.540;5.854;2023-07-31T13:59:12;4.57;5.46;5.13
45312;PMS7003;68267;51.540;5.854;2023-07-31T14:12:32;6.13;6.88;5.57
45312;PMS7003;68267;51.540;5.854;2023-07-31T14:25:51;6.85;9.49;8.51
45312;PMS7003;68267;51.540;5.854;2023-07-31T14:39:11;9.25;11.67;9.71
45312;PMS7003;68267;51.540;5.854;2023-07-31T14:52:31;5.65;8.4;6.88
45312;PMS7003;68267;51.540;5.854;2023-07-31T15:05:50;5.29;8.08;7.09
45312;PMS7003;68267;51.540;5.854;2023-07-31T15:19:10;5.05;7.86;6.77
45312;PMS7003;68267;51.540;5.854;2023-07-31T15:32:30;4.57;7.42;6.33
45312;PMS7003;68267;51.540;5.854;2023-07-31T15:45:49;4.81;7.64;6.77
45312;PMS7003;68267;51.540;5.854;2023-07-31T15:59:09;4.93;7.75;6.33
45312;PMS7003;68267;51.540;5.854;2023-07-31T16:12:29;1.8;4.91;4.37
45312;PMS7003;68267;51.540;5.854;2023-07-31T16:25:48;1.44;4.59;3.61
45312;PMS7003;68267;51.540;5.854;2023-07-31T16:39:08;0.01;2.62;2.52
45312;PMS7003;68267;51.540;5.854;2023-07-31T16:52:27;0.01;2.84;2.41
45312;PMS7003;68267;51.540;5.854;2023-07-31T17:05:47;0.01;2.3;2.19
45312;PMS7003;68267;51.540;5.854;2023-07-31T17:19:07;0.01;1.97;1.86
45312;PMS7003;68267;51.540;5.854;2023-07-31T17:32:26;0.01;2.19;2.19
45312;PMS7003;68267;51.540;5.854;2023-07-31T17:45:46;0.01;2.3;2.19
45312;PMS7003;68267;51.540;5.854;2023-07-31T17:59:06;0.0;3.28;2.41
45312;PMS7003;68267;51.540;5.854;2023-07-31T18:12:25;0.01;2.52;2.19
45312;PMS7003;68267;51.540;5.854;2023-07-31T18:25:45;0.01;2.52;2.19
45312;PMS7003;68267;51.540;5.854;2023-07-31T18:39:04;0.01;2.73;2.08
45312;PMS7003;68267;51.540;5.854;2023-07-31T18:52:24;0.01;1.97;1.97
45312;PMS7003;68267;51.540;5.854;2023-07-31T19:05:44;0.01;2.19;2.19
45312;PMS7003;68267;51.540;5.854;2023-07-31T19:19:03;0.01;2.3;2.19
45312;PMS7003;68267;51.540;5.854;2023-07-31T19:32:23;0.01;1.43;1.32
45312;PMS7003;68267;51.540;5.854;2023-07-31T19:45:43;0.01;1.54;1.43
45312;PMS7003;68267;51.540;5.854;2023-07-31T19:59:02;0.01;1.21;
45312;PMS7003;68267;51.540;5.854;2023-07-31T20:12:22;0.01;1.32;
45312;PMS7003;68267;51.540;5.854;2023-07-31T20:25:41;0.01;1.32;
45312;PMS7003;68267;51.540;5.854;2023-07-31T20:39:01;0.01;1.64;1.54
45312;PMS7003;68267;51.540;5.854;2023-07-31T20:52:21;0.01;1.97;1.75
45312;PMS7003;68267;51.540;5.854;2023-07-31T21:05:40;0.01;2.08;1.97
45312;PMS7003;68267;51.540;5.854;2023-07-31T21:19:00;0.01;2.19;2.19
45312;PMS7003;68267;51.540;5.854;2023-07-31T21:32:20;0.01;2.84;2.73
45312;PMS7003;68267;51.540;5.854;2023-07-31T21:45:39;0.01;2.52;2.52
45312;PMS7003;68267;51.540;5.854;2023-07-31T21:58:59;0.72;3.93;3.93
45312;PMS7003;68267;51.540;5.854;2023-07-31T22:12:18;1.32;4.48;4.37
45312;PMS7003;68267;51.540;5.854;2023-07-31T22:25:38;1.8;4.91;4.91
45312;PMS7003;68267;51.540;5.854;2023-07-31T22:38:58;1.92;5.02;4.91
45312;PMS7003;68267;51.540;5.854;2023-07-31T22:52:17;2.4;5.46;5.46
45312;PMS7003;68267;51.540;5.854;2023-07-31T23:05:37;4.09;6.99;6.55
45312;PMS7003;68267;51.540;5.854;2023-07-31T23:18:56;5.17;7.97;7.42
45312;PMS7003;68267;51.540;5.854;2023-07-31T23:32:16;4.93;7.75;7.09
45312;PMS7003;68267;51.540;5.854;2023-07-31T23:45:36;3.48;6.44;6.0
45312;PMS7003;68267;51.540;5.854;2023-07-31T23:58:55;2.28;5.35;5.35
